createdAt,value
2023-05-11T00:00:57.169Z,94892.00
2023-05-11T00:01:57.207Z,94892.00
2023-05-11T00:02:57.334Z,94885.00
2023-05-11T00:03:57.434Z,94885.00
2023-05-11T00:04:57.392Z,94892.00
2023-05-11T00:05:57.443Z,94885.00
2023-05-11T00:06:57.523Z,94881.00
2023-05-11T00:07:57.581Z,94879.00
2023-05-11T00:08:57.674Z,94879.00
2023-05-11T00:09:57.727Z,94877.00
2023-05-11T00:10:57.795Z,94875.00
2023-05-11T00:11:57.858Z,94873.00
2023-05-11T00:12:57.920Z,94873.00
2023-05-11T00:13:57.994Z,94873.00
2023-05-11T00:14:58.041Z,94871.00
2023-05-11T00:15:58.167Z,94873.00
2023-05-11T00:16:58.188Z,94869.00
2023-05-11T00:17:58.292Z,94869.00
2023-05-11T00:18:58.442Z,94867.00
2023-05-11T00:19:58.403Z,94869.00
2023-05-11T00:20:58.489Z,94867.00
2023-05-11T00:21:58.529Z,94873.00
2023-05-11T00:22:58.597Z,94873.00
2023-05-11T00:23:58.644Z,94871.00
2023-05-11T00:24:58.720Z,94869.00
2023-05-11T00:25:58.782Z,94867.00
2023-05-11T00:26:58.844Z,94867.00
2023-05-11T00:27:58.944Z,94865.00
2023-05-11T00:28:59.018Z,94865.00
2023-05-11T00:29:59.049Z,94867.00
2023-05-11T00:30:59.121Z,94867.00
2023-05-11T00:31:59.189Z,94867.00
2023-05-11T00:32:59.332Z,94865.00
2023-05-11T00:33:59.308Z,94863.00
2023-05-11T00:34:59.405Z,94865.00
2023-05-11T00:35:59.464Z,94863.00
2023-05-11T00:36:59.537Z,94863.00
2023-05-11T00:37:59.569Z,94865.00
2023-05-11T00:38:59.651Z,94863.00
2023-05-11T00:39:59.743Z,94861.00
2023-05-11T00:40:59.789Z,94863.00
2023-05-11T00:41:59.841Z,94863.00
2023-05-11T00:42:59.931Z,94863.00
2023-05-11T00:44:00.012Z,94863.00
2023-05-11T00:45:00.063Z,94857.00
2023-05-11T00:46:00.122Z,94861.00
2023-05-11T00:47:00.254Z,94861.00
2023-05-11T00:48:00.356Z,94861.00
2023-05-11T00:49:00.269Z,94863.00
2023-05-11T00:50:00.326Z,94861.00
2023-05-11T00:51:00.348Z,94863.00
2023-05-11T00:52:00.375Z,94863.00
2023-05-11T00:53:00.442Z,94865.00
2023-05-11T00:54:00.507Z,94861.00
2023-05-11T00:55:00.596Z,94861.00
2023-05-11T00:56:00.766Z,94859.00
2023-05-11T00:57:00.693Z,94859.00
2023-05-11T00:58:00.768Z,94857.00
2023-05-11T00:59:00.778Z,94855.00
2023-05-11T01:00:00.850Z,94861.00
2023-05-11T01:01:00.987Z,94861.00
2023-05-11T01:02:01.037Z,94859.00
2023-05-11T01:03:01.128Z,94861.00
2023-05-11T01:04:01.110Z,94859.00
2023-05-11T01:05:01.153Z,94857.00
2023-05-11T01:06:01.210Z,94857.00
2023-05-11T01:07:01.301Z,94861.00
2023-05-11T01:08:01.369Z,94859.00
2023-05-11T01:09:01.443Z,94859.00
2023-05-11T01:10:01.531Z,94859.00
2023-05-11T01:11:01.608Z,94859.00
2023-05-11T01:12:01.661Z,94861.00
2023-05-11T01:13:01.718Z,94861.00
2023-05-11T01:14:01.778Z,94859.00
2023-05-11T01:15:01.864Z,94863.00
2023-05-11T01:16:02.673Z,94857.00
2023-05-11T01:17:02.060Z,94855.00
2023-05-11T01:18:02.037Z,94859.00
2023-05-11T01:19:02.137Z,94857.00
2023-05-11T01:20:02.110Z,94855.00
2023-05-11T01:21:02.150Z,94855.00
2023-05-11T01:22:02.191Z,94855.00
2023-05-11T01:23:02.229Z,94855.00
2023-05-11T01:24:02.281Z,94857.00
2023-05-11T01:25:02.364Z,94857.00
2023-05-11T01:26:02.395Z,94857.00
2023-05-11T01:27:02.463Z,94857.00
2023-05-11T01:28:02.498Z,94857.00
2023-05-11T01:29:02.535Z,94855.00
2023-05-11T01:30:02.589Z,94855.00
2023-05-11T01:31:02.608Z,94855.00
2023-05-11T01:32:02.657Z,94851.00
2023-05-11T01:33:02.743Z,94851.00
2023-05-11T01:34:02.741Z,94845.00
2023-05-11T01:35:02.778Z,94847.00
2023-05-11T01:36:02.801Z,94843.00
2023-05-11T01:37:02.885Z,94847.00
2023-05-11T01:38:02.907Z,94845.00
2023-05-11T01:39:02.963Z,94847.00
2023-05-11T01:40:03.012Z,94845.00
2023-05-11T01:41:03.090Z,94845.00
2023-05-11T01:42:03.133Z,94845.00
2023-05-11T01:43:03.168Z,94847.00
2023-05-11T01:44:03.243Z,94849.00
2023-05-11T01:45:03.278Z,94847.00
2023-05-11T01:46:03.366Z,94849.00
2023-05-11T01:47:03.428Z,94849.00
2023-05-11T01:48:03.534Z,94849.00
2023-05-11T01:49:03.521Z,94847.00
2023-05-11T01:50:03.583Z,94847.00
2023-05-11T01:51:03.628Z,94845.00
2023-05-11T01:52:03.662Z,94847.00
2023-05-11T01:53:03.737Z,94843.00
2023-05-11T01:54:03.810Z,94845.00
2023-05-11T01:55:03.779Z,94847.00
2023-05-11T01:56:03.869Z,94847.00
2023-05-11T01:57:03.885Z,94847.00
2023-05-11T01:58:03.914Z,94849.00
2023-05-11T01:59:03.982Z,94849.00
2023-05-11T02:00:04.017Z,94847.00
2023-05-11T02:01:04.106Z,94851.00
2023-05-11T02:02:04.107Z,94851.00
2023-05-11T02:03:04.205Z,94849.00
2023-05-11T02:04:04.194Z,94851.00
2023-05-11T02:05:04.233Z,94849.00
2023-05-11T02:06:04.268Z,94851.00
2023-05-11T02:07:04.281Z,94853.00
2023-05-11T02:08:04.381Z,94847.00
2023-05-11T02:09:04.409Z,94857.00
2023-05-11T02:10:04.447Z,94853.00
2023-05-11T02:11:04.520Z,94851.00
2023-05-11T02:12:04.546Z,94853.00
2023-05-11T02:13:04.642Z,94851.00
2023-05-11T02:14:04.613Z,94851.00
2023-05-11T02:15:04.708Z,94849.00
2023-05-11T02:16:04.744Z,94853.00
2023-05-11T02:17:04.744Z,94849.00
2023-05-11T02:18:04.829Z,94855.00
2023-05-11T02:19:04.881Z,94853.00
2023-05-11T02:20:04.897Z,94853.00
2023-05-11T02:21:04.938Z,94847.00
2023-05-11T02:22:04.992Z,94853.00
2023-05-11T02:23:05.031Z,94851.00
2023-05-11T02:24:05.088Z,94853.00
2023-05-11T02:25:05.120Z,94853.00
2023-05-11T02:26:05.174Z,94855.00
2023-05-11T02:27:05.243Z,94853.00
2023-05-11T02:28:05.261Z,94855.00
2023-05-11T02:29:05.335Z,94851.00
2023-05-11T02:30:05.396Z,94851.00
2023-05-11T02:31:05.518Z,94849.00
2023-05-11T02:32:05.511Z,94849.00
2023-05-11T02:33:05.541Z,94845.00
2023-05-11T02:34:05.597Z,94845.00
2023-05-11T02:35:05.659Z,94843.00
2023-05-11T02:36:05.687Z,94843.00
2023-05-11T02:37:05.763Z,94841.00
2023-05-11T02:38:05.808Z,94843.00
2023-05-11T02:39:05.868Z,94845.00
2023-05-11T02:40:05.914Z,94845.00
2023-05-11T02:41:05.975Z,94845.00
2023-05-11T02:42:06.038Z,94845.00
2023-05-11T02:43:06.080Z,94841.00
2023-05-11T02:44:06.111Z,94843.00
2023-05-11T02:45:06.151Z,94841.00
2023-05-11T02:46:06.229Z,94841.00
2023-05-11T02:47:06.291Z,94836.00
2023-05-11T02:48:06.364Z,94838.00
2023-05-11T02:49:06.372Z,94836.00
2023-05-11T02:50:06.432Z,94836.00
2023-05-11T02:51:06.463Z,94836.00
2023-05-11T02:52:06.494Z,94836.00
2023-05-11T02:53:06.560Z,94834.00
2023-05-11T02:54:06.587Z,94836.00
2023-05-11T02:55:06.665Z,94834.00
2023-05-11T02:56:06.707Z,94834.00
2023-05-11T02:57:06.785Z,94834.00
2023-05-11T02:58:06.858Z,94832.00
2023-05-11T02:59:06.898Z,94830.00
2023-05-11T03:00:06.922Z,94830.00
2023-05-11T03:01:07.041Z,94832.00
2023-05-11T03:02:07.207Z,94830.00
2023-05-11T03:03:07.161Z,94828.00
2023-05-11T03:04:07.113Z,94832.00
2023-05-11T03:05:07.192Z,94830.00
2023-05-11T03:06:07.203Z,94830.00
2023-05-11T03:07:07.227Z,94828.00
2023-05-11T03:08:07.309Z,94828.00
2023-05-11T03:09:09.821Z,94828.00
2023-05-11T03:10:07.362Z,94828.00
2023-05-11T03:11:07.386Z,94830.00
2023-05-11T03:12:07.454Z,94830.00
2023-05-11T03:13:07.451Z,94830.00
2023-05-11T03:14:07.528Z,94828.00
2023-05-11T03:15:07.529Z,94828.00
2023-05-11T03:16:07.582Z,94830.00
2023-05-11T03:17:07.761Z,94828.00
2023-05-11T03:18:07.697Z,94830.00
2023-05-11T03:19:07.659Z,94826.00
2023-05-11T03:20:07.656Z,94830.00
2023-05-11T03:21:07.692Z,94824.00
2023-05-11T03:22:07.707Z,94830.00
2023-05-11T03:23:07.707Z,94830.00
2023-05-11T03:24:07.781Z,94828.00
2023-05-11T03:25:07.779Z,94824.00
2023-05-11T03:26:07.882Z,94824.00
2023-05-11T03:27:07.861Z,94824.00
2023-05-11T03:28:07.854Z,94826.00
2023-05-11T03:29:07.877Z,94824.00
2023-05-11T03:30:07.956Z,94822.00
2023-05-11T03:31:07.946Z,94822.00
2023-05-11T03:32:08.058Z,94822.00
2023-05-11T03:33:08.003Z,94820.00
2023-05-11T03:34:08.057Z,94822.00
2023-05-11T03:35:08.043Z,94822.00
2023-05-11T03:36:08.086Z,94824.00
2023-05-11T03:37:08.100Z,94820.00
2023-05-11T03:38:08.153Z,94822.00
2023-05-11T03:39:08.182Z,94822.00
2023-05-11T03:40:08.168Z,94820.00
2023-05-11T03:41:08.232Z,94818.00
2023-05-11T03:42:08.237Z,94814.00
2023-05-11T03:43:08.255Z,94820.00
2023-05-11T03:44:08.323Z,94816.00
2023-05-11T03:45:08.330Z,94820.00
2023-05-11T03:46:08.395Z,94818.00
2023-05-11T03:47:08.381Z,94820.00
2023-05-11T03:48:08.382Z,94818.00
2023-05-11T03:49:08.806Z,94818.00
2023-05-11T03:50:08.463Z,94822.00
2023-05-11T03:51:08.463Z,94820.00
2023-05-11T03:52:08.472Z,94822.00
2023-05-11T03:53:08.507Z,94820.00
2023-05-11T03:54:08.531Z,94820.00
2023-05-11T03:55:08.546Z,94816.00
2023-05-11T03:56:08.556Z,94818.00
2023-05-11T03:57:08.551Z,94816.00
2023-05-11T03:58:08.586Z,94818.00
2023-05-11T03:59:08.631Z,94818.00
2023-05-11T04:00:08.649Z,94820.00
2023-05-11T04:01:08.694Z,94816.00
2023-05-11T04:02:08.750Z,94820.00
2023-05-11T04:03:08.822Z,94818.00
2023-05-11T04:04:08.818Z,94820.00
2023-05-11T04:05:08.787Z,94820.00
2023-05-11T04:06:08.804Z,94816.00
2023-05-11T04:07:08.807Z,94812.00
2023-05-11T04:08:08.832Z,94814.00
2023-05-11T04:09:08.855Z,94810.00
2023-05-11T04:10:08.907Z,94810.00
2023-05-11T04:11:08.901Z,94812.00
2023-05-11T04:12:08.955Z,94812.00
2023-05-11T04:13:08.984Z,94814.00
2023-05-11T04:14:08.957Z,94812.00
2023-05-11T04:15:08.998Z,94810.00
2023-05-11T04:16:09.043Z,94812.00
2023-05-11T04:17:09.057Z,94812.00
2023-05-11T04:18:09.144Z,94812.00
2023-05-11T04:19:09.125Z,94816.00
2023-05-11T04:20:09.149Z,94810.00
2023-05-11T04:21:09.139Z,94808.00
2023-05-11T04:22:09.186Z,94812.00
2023-05-11T04:23:10.424Z,94812.00
2023-05-11T04:24:09.184Z,94812.00
2023-05-11T04:25:09.256Z,94812.00
2023-05-11T04:26:09.265Z,94810.00
2023-05-11T04:27:09.302Z,94812.00
2023-05-11T04:28:09.318Z,94812.00
2023-05-11T04:29:09.326Z,94814.00
2023-05-11T04:30:09.375Z,94816.00
2023-05-11T04:31:09.573Z,94814.00
2023-05-11T04:32:09.409Z,94818.00
2023-05-11T04:33:09.415Z,94818.00
2023-05-11T04:34:09.468Z,94818.00
2023-05-11T04:35:09.506Z,94822.00
2023-05-11T04:36:09.537Z,94826.00
2023-05-11T04:37:09.563Z,94824.00
2023-05-11T04:38:09.556Z,94826.00
2023-05-11T04:39:09.601Z,94824.00
2023-05-11T04:40:09.640Z,94822.00
2023-05-11T04:41:09.650Z,94822.00
2023-05-11T04:42:09.685Z,94824.00
2023-05-11T04:43:09.698Z,94820.00
2023-05-11T04:44:09.703Z,94820.00
2023-05-11T04:45:09.749Z,94818.00
2023-05-11T04:46:09.759Z,94820.00
2023-05-11T04:47:09.906Z,94822.00
2023-05-11T04:48:09.862Z,94824.00
2023-05-11T04:49:09.868Z,94826.00
2023-05-11T04:50:09.954Z,94824.00
2023-05-11T04:51:10.020Z,94824.00
2023-05-11T04:52:10.026Z,94828.00
2023-05-11T04:53:10.095Z,94826.00
2023-05-11T04:54:10.125Z,94828.00
2023-05-11T04:55:10.220Z,94826.00
2023-05-11T04:56:10.236Z,94826.00
2023-05-11T04:57:10.301Z,94830.00
2023-05-11T04:58:10.317Z,94832.00
2023-05-11T04:59:10.392Z,94832.00
2023-05-11T05:00:10.486Z,94832.00
2023-05-11T05:01:17.760Z,94830.00
2023-05-11T05:02:10.509Z,94830.00
2023-05-11T05:03:10.623Z,94832.00
2023-05-11T05:04:10.652Z,94834.00
2023-05-11T05:05:10.624Z,94832.00
2023-05-11T05:06:10.623Z,94834.00
2023-05-11T05:07:10.678Z,94834.00
2023-05-11T05:08:10.680Z,94832.00
2023-05-11T05:09:10.718Z,94834.00
2023-05-11T05:10:10.790Z,94836.00
2023-05-11T05:11:10.799Z,94834.00
2023-05-11T05:12:10.783Z,94836.00
2023-05-11T05:13:10.812Z,94834.00
2023-05-11T05:14:10.836Z,94836.00
2023-05-11T05:15:10.820Z,94836.00
2023-05-11T05:16:10.927Z,94834.00
2023-05-11T05:17:11.056Z,94839.00
2023-05-11T05:18:10.961Z,94838.00
2023-05-11T05:19:10.927Z,94841.00
2023-05-11T05:20:10.975Z,94841.00
2023-05-11T05:21:10.969Z,94841.00
2023-05-11T05:22:11.015Z,94843.00
2023-05-11T05:23:11.029Z,94841.00
2023-05-11T05:24:11.026Z,94843.00
2023-05-11T05:25:11.039Z,94843.00
2023-05-11T05:26:11.092Z,94845.00
2023-05-11T05:27:11.083Z,94839.00
2023-05-11T05:28:11.108Z,94847.00
2023-05-11T05:29:11.153Z,94849.00
2023-05-11T05:30:11.168Z,94843.00
2023-05-11T05:31:11.259Z,94847.00
2023-05-11T05:32:11.254Z,94847.00
2023-05-11T05:33:11.324Z,94847.00
2023-05-11T05:34:11.844Z,94845.00
2023-05-11T05:35:11.429Z,94847.00
2023-05-11T05:36:11.564Z,94849.00
2023-05-11T05:37:11.595Z,94849.00
2023-05-11T05:38:11.687Z,94849.00
2023-05-11T05:39:11.720Z,94851.00
2023-05-11T05:40:11.809Z,94851.00
2023-05-11T05:41:12.265Z,94853.00
2023-05-11T05:42:12.088Z,94853.00
2023-05-11T05:43:12.025Z,94853.00
2023-05-11T05:44:12.171Z,94851.00
2023-05-11T05:45:13.961Z,94849.00
2023-05-11T05:46:19.799Z,94849.00
2023-05-11T05:47:12.418Z,94849.00
2023-05-11T05:48:12.438Z,94847.00
2023-05-11T05:49:12.469Z,94851.00
2023-05-11T05:50:12.575Z,94849.00
2023-05-11T05:51:12.803Z,94851.00
2023-05-11T05:52:12.514Z,94851.00
2023-05-11T05:53:12.531Z,94853.00
2023-05-11T05:54:12.700Z,94851.00
2023-05-11T05:55:12.578Z,94853.00
2023-05-11T05:56:12.598Z,94853.00
2023-05-11T05:57:15.006Z,94853.00
2023-05-11T05:58:12.632Z,94855.00
2023-05-11T05:59:12.653Z,94855.00
2023-05-11T06:00:12.678Z,94851.00
2023-05-11T06:01:12.678Z,94855.00
2023-05-11T06:02:12.774Z,94857.00
2023-05-11T06:03:12.793Z,94857.00
2023-05-11T06:04:12.835Z,94859.00
2023-05-11T06:05:12.789Z,94859.00
2023-05-11T06:06:12.868Z,94863.00
2023-05-11T06:07:12.916Z,94861.00
2023-05-11T06:08:12.951Z,94865.00
2023-05-11T06:09:12.869Z,94865.00
2023-05-11T06:10:12.887Z,94861.00
2023-05-11T06:11:12.912Z,94865.00
2023-05-11T06:12:12.952Z,94865.00
2023-05-11T06:13:12.907Z,94863.00
2023-05-11T06:14:12.983Z,94863.00
2023-05-11T06:15:12.974Z,94863.00
2023-05-11T06:16:12.978Z,94867.00
2023-05-11T06:17:12.959Z,94865.00
2023-05-11T06:18:13.026Z,94863.00
2023-05-11T06:19:12.993Z,94865.00
2023-05-11T06:20:12.993Z,94865.00
2023-05-11T06:21:13.030Z,94867.00
2023-05-11T06:22:12.995Z,94865.00
2023-05-11T06:23:13.014Z,94867.00
2023-05-11T06:24:13.051Z,94867.00
2023-05-11T06:25:13.033Z,94865.00
2023-05-11T06:26:13.035Z,94865.00
2023-05-11T06:27:13.056Z,94867.00
2023-05-11T06:28:13.050Z,94865.00
2023-05-11T06:29:13.050Z,94869.00
2023-05-11T06:30:13.085Z,94871.00
2023-05-11T06:31:13.123Z,94871.00
2023-05-11T06:32:13.078Z,94869.00
2023-05-11T06:33:13.084Z,94869.00
2023-05-11T06:34:13.126Z,94869.00
2023-05-11T06:35:13.101Z,94871.00
2023-05-11T06:36:13.146Z,94869.00
2023-05-11T06:37:13.111Z,94871.00
2023-05-11T06:38:13.069Z,94873.00
2023-05-11T06:39:13.112Z,94869.00
2023-05-11T06:40:13.102Z,94871.00
2023-05-11T06:41:13.131Z,94871.00
2023-05-11T06:42:13.118Z,94871.00
2023-05-11T06:43:13.147Z,94873.00
2023-05-11T06:44:13.198Z,94873.00
2023-05-11T06:45:13.138Z,94869.00
2023-05-11T06:46:13.200Z,94867.00
2023-05-11T06:47:13.323Z,94867.00
2023-05-11T06:48:13.203Z,94865.00
2023-05-11T06:49:13.167Z,94865.00
2023-05-11T06:50:13.243Z,94867.00
2023-05-11T06:51:13.155Z,94871.00
2023-05-11T06:52:13.150Z,94869.00
2023-05-11T06:53:13.158Z,94869.00
2023-05-11T06:54:13.170Z,94865.00
2023-05-11T06:55:13.181Z,94865.00
2023-05-11T06:56:13.171Z,94869.00
2023-05-11T06:57:14.554Z,94869.00
2023-05-11T06:58:13.144Z,94871.00
2023-05-11T06:59:13.185Z,94871.00
2023-05-11T07:00:13.266Z,94873.00
2023-05-11T07:01:13.213Z,94869.00
2023-05-11T07:02:13.354Z,94873.00
2023-05-11T07:03:13.278Z,94867.00
2023-05-11T07:04:13.174Z,94873.00
2023-05-11T07:05:13.735Z,94869.00
2023-05-11T07:06:13.202Z,94867.00
2023-05-11T07:07:13.143Z,94863.00
2023-05-11T07:08:13.339Z,94865.00
2023-05-11T07:09:13.200Z,94867.00
2023-05-11T07:10:13.222Z,94869.00
2023-05-11T07:11:13.151Z,94867.00
2023-05-11T07:12:13.200Z,94865.00
2023-05-11T07:13:13.259Z,94867.00
2023-05-11T07:14:13.264Z,94865.00
2023-05-11T07:15:13.500Z,94869.00
2023-05-11T07:16:13.344Z,94865.00
2023-05-11T07:17:13.416Z,94863.00
2023-05-11T07:18:13.443Z,94867.00
2023-05-11T07:19:13.649Z,94865.00
2023-05-11T07:20:13.507Z,94865.00
2023-05-11T07:21:13.574Z,94865.00
2023-05-11T07:22:14.974Z,94865.00
2023-05-11T07:23:13.632Z,94863.00
2023-05-11T07:24:13.704Z,94867.00
2023-05-11T07:25:13.811Z,94867.00
2023-05-11T07:26:13.751Z,94865.00
2023-05-11T07:27:13.811Z,94865.00
2023-05-11T07:28:13.829Z,94863.00
2023-05-11T07:29:13.872Z,94867.00
2023-05-11T07:30:13.907Z,94865.00
2023-05-11T07:31:13.970Z,94865.00
2023-05-11T07:32:13.939Z,94863.00
2023-05-11T07:33:13.969Z,94863.00
2023-05-11T07:34:14.013Z,94867.00
2023-05-11T07:35:14.049Z,94863.00
2023-05-11T07:36:14.080Z,94865.00
2023-05-11T07:37:14.063Z,94867.00
2023-05-11T07:38:14.352Z,94867.00
2023-05-11T07:39:14.337Z,94867.00
2023-05-11T07:40:14.288Z,94863.00
2023-05-11T07:41:14.303Z,94863.00
2023-05-11T07:42:14.300Z,94863.00
2023-05-11T07:43:14.331Z,94863.00
2023-05-11T07:44:14.360Z,94861.00
2023-05-11T07:45:14.378Z,94861.00
2023-05-11T07:46:14.466Z,94863.00
2023-05-11T07:47:14.420Z,94863.00
2023-05-11T07:48:14.531Z,94867.00
2023-05-11T07:49:18.921Z,94863.00
2023-05-11T07:50:16.989Z,94865.00
2023-05-11T07:51:14.442Z,94865.00
2023-05-11T07:52:14.485Z,94865.00
2023-05-11T07:53:14.519Z,94863.00
2023-05-11T07:54:14.459Z,94865.00
2023-05-11T07:55:14.504Z,94865.00
2023-05-11T07:56:14.470Z,94861.00
2023-05-11T07:57:14.492Z,94863.00
2023-05-11T07:58:14.479Z,94863.00
2023-05-11T07:59:14.518Z,94863.00
2023-05-11T08:00:14.526Z,94863.00
2023-05-11T08:01:14.469Z,94865.00
2023-05-11T08:02:14.479Z,94865.00
2023-05-11T08:03:14.907Z,94861.00
2023-05-11T08:04:14.518Z,94863.00
2023-05-11T08:05:14.473Z,94863.00
2023-05-11T08:06:14.534Z,94859.00
2023-05-11T08:07:14.469Z,94859.00
2023-05-11T08:08:14.561Z,94861.00
2023-05-11T08:09:14.486Z,94857.00
2023-05-11T08:10:14.451Z,94859.00
2023-05-11T08:11:14.456Z,94857.00
2023-05-11T08:12:14.479Z,94855.00
2023-05-11T08:13:14.503Z,94857.00
2023-05-11T08:14:14.452Z,94861.00
2023-05-11T08:15:14.453Z,94861.00
2023-05-11T08:16:14.486Z,94857.00
2023-05-11T08:17:14.475Z,94857.00
2023-05-11T08:18:14.569Z,94857.00
2023-05-11T08:19:14.462Z,94859.00
2023-05-11T08:20:14.450Z,94859.00
2023-05-11T08:21:14.447Z,94859.00
2023-05-11T08:22:14.456Z,94859.00
2023-05-11T08:23:14.464Z,94863.00
2023-05-11T08:24:14.453Z,94861.00
2023-05-11T08:25:14.481Z,94861.00
2023-05-11T08:26:14.441Z,94861.00
2023-05-11T08:27:14.383Z,94861.00
2023-05-11T08:28:14.390Z,94857.00
2023-05-11T08:29:14.414Z,94859.00
2023-05-11T08:30:14.390Z,94857.00
2023-05-11T08:31:14.485Z,94857.00
2023-05-11T08:32:14.421Z,94859.00
2023-05-11T08:33:33.967Z,94861.00
2023-05-11T08:34:19.595Z,94857.00
2023-05-11T08:35:14.680Z,94861.00
2023-05-11T08:36:14.626Z,94857.00
2023-05-11T08:37:14.723Z,94855.00
2023-05-11T08:38:14.739Z,94853.00
2023-05-11T08:39:14.775Z,94857.00
2023-05-11T08:40:15.083Z,94855.00
2023-05-11T08:41:14.739Z,94855.00
2023-05-11T08:42:14.844Z,94859.00
2023-05-11T08:43:14.763Z,94857.00
2023-05-11T08:44:14.778Z,94853.00
2023-05-11T08:45:14.724Z,94853.00
2023-05-11T08:46:14.729Z,94853.00
2023-05-11T08:47:21.958Z,94853.00
2023-05-11T08:48:15.893Z,94853.00
2023-05-11T08:49:14.719Z,94853.00
2023-05-11T08:50:14.734Z,94851.00
2023-05-11T08:51:14.775Z,94851.00
2023-05-11T08:52:14.832Z,94849.00
2023-05-11T08:53:14.829Z,94849.00
2023-05-11T08:54:14.889Z,94851.00
2023-05-11T08:55:14.967Z,94855.00
2023-05-11T08:56:15.005Z,94855.00
2023-05-11T08:57:15.023Z,94853.00
2023-05-11T08:58:15.100Z,94853.00
2023-05-11T08:59:15.125Z,94855.00
2023-05-11T09:00:15.142Z,94855.00
2023-05-11T09:01:15.252Z,94855.00
2023-05-11T09:02:15.196Z,94853.00
2023-05-11T09:03:15.281Z,94851.00
2023-05-11T09:04:15.394Z,94849.00
2023-05-11T09:05:15.350Z,94851.00
2023-05-11T09:06:15.332Z,94849.00
2023-05-11T09:07:15.389Z,94847.00
2023-05-11T09:08:15.397Z,94847.00
2023-05-11T09:09:15.424Z,94851.00
2023-05-11T09:10:15.452Z,94849.00
2023-05-11T09:11:15.486Z,94851.00
2023-05-11T09:12:15.528Z,94851.00
2023-05-11T09:13:15.588Z,94851.00
2023-05-11T09:14:15.581Z,94853.00
2023-05-11T09:15:15.615Z,94851.00
2023-05-11T09:16:28.297Z,94851.00
2023-05-11T09:17:16.637Z,94847.00
2023-05-11T09:18:15.616Z,94847.00
2023-05-11T09:19:15.633Z,94847.00
2023-05-11T09:20:15.648Z,94847.00
2023-05-11T09:21:15.587Z,94843.00
2023-05-11T09:22:15.601Z,94841.00
2023-05-11T09:23:15.559Z,94843.00
2023-05-11T09:24:15.553Z,94845.00
2023-05-11T09:25:16.585Z,94845.00
2023-05-11T09:26:15.533Z,94845.00
2023-05-11T09:27:21.314Z,94843.00
2023-05-11T09:28:16.586Z,94843.00
2023-05-11T09:29:15.511Z,94843.00
2023-05-11T09:30:22.026Z,94841.00
2023-05-11T09:31:16.508Z,94847.00
2023-05-11T09:32:15.469Z,94845.00
2023-05-11T09:33:15.478Z,94843.00
2023-05-11T09:34:15.437Z,94843.00
2023-05-11T09:35:15.439Z,94843.00
2023-05-11T09:36:15.434Z,94841.00
2023-05-11T09:37:15.361Z,94841.00
2023-05-11T09:38:15.384Z,94843.00
2023-05-11T09:39:16.610Z,94841.00
2023-05-11T09:40:26.896Z,94843.00
2023-05-11T09:41:16.305Z,94845.00
2023-05-11T09:42:15.280Z,94843.00
2023-05-11T09:43:15.279Z,94843.00
2023-05-11T09:44:15.396Z,94843.00
2023-05-11T09:45:15.277Z,94841.00
2023-05-11T09:46:15.237Z,94843.00
2023-05-11T09:47:15.145Z,94843.00
2023-05-11T09:48:15.209Z,94841.00
2023-05-11T09:49:15.899Z,94841.00
2023-05-11T09:50:15.151Z,94843.00
2023-05-11T09:51:15.134Z,94841.00
2023-05-11T09:52:15.106Z,94839.00
2023-05-11T09:53:15.098Z,94841.00
2023-05-11T09:54:15.109Z,94843.00
2023-05-11T09:55:15.083Z,94838.00
2023-05-11T09:56:15.184Z,94841.00
2023-05-11T09:57:15.231Z,94836.00
2023-05-11T09:58:15.274Z,94839.00
2023-05-11T09:59:15.392Z,94839.00
2023-05-11T10:00:15.415Z,94836.00
2023-05-11T10:01:15.451Z,94838.00
2023-05-11T10:02:15.517Z,94836.00
2023-05-11T10:03:15.587Z,94839.00
2023-05-11T10:04:23.428Z,94841.00
2023-05-11T10:05:16.771Z,94838.00
2023-05-11T10:06:16.496Z,94841.00
2023-05-11T10:07:15.614Z,94838.00
2023-05-11T10:08:15.636Z,94836.00
2023-05-11T10:09:15.891Z,94836.00
2023-05-11T10:10:15.703Z,94834.00
2023-05-11T10:11:15.738Z,94834.00
2023-05-11T10:12:15.734Z,94834.00
2023-05-11T10:13:15.760Z,94836.00
2023-05-11T10:14:15.821Z,94832.00
2023-05-11T10:15:15.852Z,94834.00
2023-05-11T10:16:15.934Z,94832.00
2023-05-11T10:17:15.858Z,94834.00
2023-05-11T10:18:17.458Z,94832.00
2023-05-11T10:19:15.990Z,94834.00
2023-05-11T10:20:15.944Z,94834.00
2023-05-11T10:21:15.883Z,94832.00
2023-05-11T10:22:15.943Z,94832.00
2023-05-11T10:23:15.945Z,94834.00
2023-05-11T10:24:17.153Z,94832.00
2023-05-11T10:25:15.887Z,94832.00
2023-05-11T10:26:15.858Z,94828.00
2023-05-11T10:27:15.852Z,94828.00
2023-05-11T10:28:15.896Z,94830.00
2023-05-11T10:29:15.981Z,94828.00
2023-05-11T10:30:16.062Z,94826.00
2023-05-11T10:31:16.039Z,94826.00
2023-05-11T10:32:16.064Z,94826.00
2023-05-11T10:33:16.092Z,94826.00
2023-05-11T10:34:16.525Z,94824.00
2023-05-11T10:35:16.215Z,94824.00
2023-05-11T10:36:19.358Z,94822.00
2023-05-11T10:37:16.226Z,94820.00
2023-05-11T10:38:16.162Z,94822.00
2023-05-11T10:39:17.026Z,94820.00
2023-05-11T10:40:16.497Z,94820.00
2023-05-11T10:41:16.156Z,94818.00
2023-05-11T10:42:16.172Z,94818.00
2023-05-11T10:43:16.091Z,94820.00
2023-05-11T10:44:16.100Z,94818.00
2023-05-11T10:45:16.436Z,94814.00
2023-05-11T10:46:16.127Z,94814.00
2023-05-11T10:47:16.086Z,94814.00
2023-05-11T10:48:16.191Z,94812.00
2023-05-11T10:49:16.039Z,94810.00
2023-05-11T10:50:16.233Z,94810.00
2023-05-11T10:51:16.029Z,94808.00
2023-05-11T10:52:16.010Z,94810.00
2023-05-11T10:53:16.012Z,94810.00
2023-05-11T10:54:15.997Z,94812.00
2023-05-11T10:55:16.232Z,94808.00
2023-05-11T10:56:15.956Z,94810.00
2023-05-11T10:57:15.924Z,94810.00
2023-05-11T10:58:15.960Z,94810.00
2023-05-11T10:59:15.914Z,94812.00
2023-05-11T11:00:16.003Z,94810.00
2023-05-11T11:01:15.916Z,94806.00
2023-05-11T11:02:15.893Z,94806.00
2023-05-11T11:03:15.853Z,94808.00
2023-05-11T11:04:15.927Z,94808.00
2023-05-11T11:05:16.008Z,94804.00
2023-05-11T11:06:15.842Z,94808.00
2023-05-11T11:07:15.858Z,94806.00
2023-05-11T11:08:15.833Z,94804.00
2023-05-11T11:09:16.213Z,94804.00
2023-05-11T11:10:15.854Z,94808.00
2023-05-11T11:11:15.824Z,94804.00
2023-05-11T11:12:15.825Z,94802.00
2023-05-11T11:13:15.871Z,94800.00
2023-05-11T11:14:15.969Z,94802.00
2023-05-11T11:15:15.958Z,94800.00
2023-05-11T11:16:16.801Z,94800.00
2023-05-11T11:17:16.012Z,94802.00
2023-05-11T11:18:15.932Z,94802.00
2023-05-11T11:19:15.974Z,94798.00
2023-05-11T11:20:16.415Z,94798.00
2023-05-11T11:21:16.095Z,94802.00
2023-05-11T11:22:16.141Z,94800.00
2023-05-11T11:23:16.144Z,94802.00
2023-05-11T11:24:16.179Z,94798.00
2023-05-11T11:25:16.582Z,94796.00
2023-05-11T11:26:16.245Z,94796.00
2023-05-11T11:27:16.322Z,94796.00
2023-05-11T11:28:16.376Z,94796.00
2023-05-11T11:29:16.403Z,94792.00
2023-05-11T11:30:16.952Z,94794.00
2023-05-11T11:31:16.562Z,94792.00
2023-05-11T11:32:16.553Z,94792.00
2023-05-11T11:33:16.640Z,94792.00
2023-05-11T11:34:16.620Z,94789.00
2023-05-11T11:35:17.614Z,94789.00
2023-05-11T11:36:16.674Z,94787.00
2023-05-11T11:37:16.752Z,94785.00
2023-05-11T11:38:16.787Z,94787.00
2023-05-11T11:39:16.963Z,94792.00
2023-05-11T11:40:16.836Z,94787.00
2023-05-11T11:41:16.882Z,94783.00
2023-05-11T11:42:16.943Z,94787.00
2023-05-11T11:43:16.942Z,94785.00
2023-05-11T11:44:16.975Z,94783.00
2023-05-11T11:45:17.247Z,94781.00